createdAt,value
2023-01-20T00:02:34.767Z,51.78
2023-01-20T00:05:16.800Z,42.88
2023-01-20T00:07:57.747Z,53.30
2023-01-20T00:10:25.657Z,47.47
2023-01-20T00:12:53.442Z,43.85
2023-01-20T00:15:23.343Z,44.63
2023-01-20T00:20:35.454Z,38.70
2023-01-20T00:23:08.005Z,40.25
2023-01-20T00:25:39.821Z,52.08
2023-01-20T00:29:09.036Z,41.92
2023-01-20T00:32:25.717Z,53.78
2023-01-20T00:39:45.158Z,54.70
2023-01-20T00:42:11.881Z,58.47
2023-01-20T00:44:47.145Z,56.78
2023-01-20T00:47:15.294Z,45.30
2023-01-20T00:49:55.736Z,57.08
2023-01-20T00:52:23.458Z,60.17
2023-01-20T00:54:51.285Z,65.88
2023-01-20T00:57:18.339Z,56.33
2023-01-20T00:59:45.384Z,56.25
2023-01-20T01:02:19.470Z,52.95
2023-01-20T01:05:08.304Z,53.35
2023-01-20T01:08:11.749Z,41.28
2023-01-20T01:15:14.275Z,64.85
2023-01-20T01:17:44.940Z,45.58
2023-01-20T01:20:15.047Z,53.63
2023-01-20T01:23:31.212Z,46.72
2023-01-20T01:26:12.220Z,50.08
2023-01-20T01:29:31.244Z,48.85
2023-01-20T01:32:01.171Z,55.33
2023-01-20T01:36:58.987Z,47.03
2023-01-20T01:39:48.680Z,48.92
2023-01-20T01:42:24.545Z,48.83
2023-01-20T01:45:24.157Z,55.60
2023-01-20T01:48:05.630Z,58.60
2023-01-20T01:50:48.331Z,53.63
2023-01-20T01:53:40.816Z,50.53
2023-01-20T01:56:25.748Z,57.05
2023-01-20T01:59:16.953Z,49.72
2023-01-20T02:02:24.193Z,47.42
2023-01-20T02:05:08.980Z,51.78
2023-01-20T02:07:48.973Z,49.03
2023-01-20T02:10:18.285Z,46.00
2023-01-20T02:13:11.941Z,45.42
2023-01-20T02:16:03.945Z,55.20
2023-01-20T02:19:11.494Z,47.53
2023-01-20T02:22:04.471Z,53.78
2023-01-20T02:25:02.637Z,56.10
2023-01-20T02:31:36.288Z,43.45
2023-01-20T02:34:38.895Z,42.65
2023-01-20T02:37:43.179Z,42.15
2023-01-20T02:40:30.264Z,44.20
2023-01-20T02:43:17.813Z,43.45
2023-01-20T02:46:06.972Z,35.97
2023-01-20T02:49:19.944Z,48.45
2023-01-20T02:52:15.325Z,39.47
2023-01-20T02:54:57.197Z,40.30
2023-01-20T02:57:32.711Z,42.45
2023-01-20T03:00:22.714Z,45.70
2023-01-20T03:02:53.433Z,45.15
2023-01-20T03:05:33.285Z,44.72
2023-01-20T03:11:06.692Z,44.78
2023-01-20T03:16:48.776Z,39.15
2023-01-20T03:19:58.678Z,35.88
2023-01-20T03:25:20.355Z,41.85
2023-01-20T03:28:05.132Z,53.40
2023-01-20T03:34:22.886Z,38.83
2023-01-20T03:36:54.674Z,45.47
2023-01-20T03:39:26.833Z,49.60
2023-01-20T03:42:47.596Z,40.03
2023-01-20T03:49:56.360Z,44.10
2023-01-20T03:53:00.689Z,46.25
2023-01-20T03:56:00.789Z,47.33
2023-01-20T03:58:44.458Z,45.97
2023-01-20T04:01:18.517Z,63.47
2023-01-20T04:03:50.575Z,54.78
2023-01-20T04:06:51.007Z,51.88
2023-01-20T04:09:28.952Z,54.55
2023-01-20T04:12:16.672Z,54.78
2023-01-20T04:14:46.666Z,57.95
2023-01-20T04:17:38.667Z,49.22
2023-01-20T04:23:58.454Z,42.60
2023-01-20T04:26:27.378Z,56.77
2023-01-20T04:29:46.907Z,39.80
2023-01-20T04:32:42.872Z,52.30
2023-01-20T04:35:18.323Z,45.30
2023-01-20T04:37:58.703Z,43.45
2023-01-20T04:40:25.545Z,35.40
2023-01-20T04:42:58.988Z,54.42
2023-01-20T04:45:25.703Z,47.78
2023-01-20T04:47:52.797Z,41.25
2023-01-20T04:50:24.729Z,52.97
2023-01-20T04:53:02.021Z,52.15
2023-01-20T04:55:37.240Z,54.05
2023-01-20T04:58:31.432Z,52.92
2023-01-20T05:01:55.709Z,52.38
2023-01-20T05:04:33.835Z,51.38
2023-01-20T05:07:47.513Z,48.58
2023-01-20T05:10:38.138Z,51.85
2023-01-20T05:13:16.254Z,54.35
2023-01-20T05:16:07.567Z,56.17
2023-01-20T05:18:47.426Z,53.55
2023-01-20T05:23:52.887Z,43.10
2023-01-20T05:26:19.748Z,42.70
2023-01-20T05:32:52.591Z,46.08
2023-01-20T05:35:26.914Z,55.65
2023-01-20T05:38:12.223Z,47.08
2023-01-20T05:41:33.479Z,46.42
2023-01-20T05:44:46.375Z,44.05
2023-01-20T05:47:58.483Z,50.05
2023-01-20T05:50:27.357Z,43.25
2023-01-20T05:53:01.203Z,45.63
2023-01-20T05:56:06.816Z,47.97
2023-01-20T05:59:11.541Z,47.40
2023-01-20T06:01:40.534Z,45.35
2023-01-20T06:04:10.579Z,49.57
2023-01-20T06:07:07.612Z,50.92
2023-01-20T06:10:30.628Z,53.38
2023-01-20T06:13:17.585Z,44.33
2023-01-20T06:16:07.480Z,44.20
2023-01-20T06:19:09.656Z,47.05
2023-01-20T06:21:36.627Z,45.28
2023-01-20T06:24:03.854Z,49.42
2023-01-20T06:26:31.580Z,45.45
2023-01-20T06:29:02.738Z,49.28
2023-01-20T06:32:12.322Z,53.25
2023-01-20T06:34:44.790Z,53.10
2023-01-20T06:37:14.030Z,36.17
2023-01-20T06:39:40.780Z,38.63
2023-01-20T06:42:19.090Z,39.50
2023-01-20T06:44:46.011Z,37.83
2023-01-20T06:47:15.900Z,34.58
2023-01-20T06:52:38.767Z,27.88
2023-01-20T06:55:25.905Z,46.30
2023-01-20T06:58:31.097Z,37.45
2023-01-20T07:01:04.147Z,33.95
2023-01-20T07:03:32.134Z,42.55
2023-01-20T07:06:01.533Z,41.75
2023-01-20T07:08:29.018Z,39.83
2023-01-20T07:11:00.221Z,39.67
2023-01-20T07:13:27.279Z,30.67
2023-01-20T07:15:56.557Z,35.83
2023-01-20T07:18:23.492Z,29.88
2023-01-20T07:20:54.653Z,34.38
2023-01-20T07:23:32.022Z,39.03
2023-01-20T07:26:04.333Z,36.10
2023-01-20T07:28:32.454Z,34.45
2023-01-20T07:31:06.347Z,39.22
2023-01-20T07:33:33.971Z,27.40
2023-01-20T07:36:01.934Z,37.65
2023-01-20T07:38:30.054Z,32.85
2023-01-20T07:41:04.975Z,41.45
2023-01-20T07:43:34.027Z,49.28
2023-01-20T07:46:04.756Z,39.20
2023-01-20T07:48:33.488Z,25.52
2023-01-20T07:51:05.319Z,34.80
2023-01-20T07:53:37.290Z,28.40
2023-01-20T07:56:06.454Z,32.40
2023-01-20T07:58:34.413Z,27.20
2023-01-20T08:01:13.001Z,37.05
2023-01-20T08:03:40.259Z,31.02
2023-01-20T08:06:11.050Z,31.95
2023-01-20T08:08:38.345Z,26.80
2023-01-20T08:11:08.319Z,26.90
2023-01-20T08:13:50.826Z,29.48
2023-01-20T08:16:18.564Z,26.60
2023-01-20T08:18:47.198Z,32.83
2023-01-20T08:21:22.544Z,25.13
2023-01-20T08:23:52.177Z,25.85
2023-01-20T08:26:19.519Z,32.35
2023-01-20T08:28:47.587Z,26.25
2023-01-20T08:31:19.835Z,40.95
2023-01-20T08:33:47.799Z,22.38
2023-01-20T08:36:22.783Z,26.38
2023-01-20T08:38:50.839Z,33.17
2023-01-20T08:41:26.170Z,23.20
2023-01-20T08:43:53.126Z,26.48
2023-01-20T08:46:22.104Z,21.13
2023-01-20T08:48:49.877Z,29.02
2023-01-20T08:51:21.447Z,23.60
2023-01-20T08:53:48.919Z,22.75
2023-01-20T08:56:19.136Z,27.40
2023-01-20T08:58:46.467Z,18.25
2023-01-20T09:01:17.019Z,19.52
2023-01-20T09:04:03.790Z,20.23
2023-01-20T09:06:43.587Z,21.52
2023-01-20T09:09:12.436Z,21.50
2023-01-20T09:11:40.989Z,16.33
2023-01-20T09:14:13.297Z,21.77
2023-01-20T09:16:40.283Z,16.52
2023-01-20T09:19:07.046Z,24.73
2023-01-20T09:21:34.063Z,9.40
2023-01-20T09:24:01.070Z,14.88
2023-01-20T09:26:35.651Z,19.83
2023-01-20T09:29:11.714Z,19.83
2023-01-20T09:31:44.995Z,14.10
2023-01-20T09:34:24.480Z,18.00
2023-01-20T09:37:19.818Z,26.80
2023-01-20T09:40:05.989Z,20.98
2023-01-20T09:43:29.958Z,17.73
2023-01-20T09:46:14.277Z,23.52
2023-01-20T09:49:11.813Z,24.75
2023-01-20T09:52:15.745Z,17.17
2023-01-20T09:54:48.869Z,19.10
2023-01-20T09:57:17.972Z,18.20
2023-01-20T10:00:09.301Z,18.23
2023-01-20T10:02:37.331Z,18.92
2023-01-20T10:05:20.293Z,18.17
2023-01-20T10:07:55.689Z,22.40
2023-01-20T10:10:35.367Z,19.48
2023-01-20T10:13:16.681Z,14.30
2023-01-20T10:15:52.818Z,15.45
2023-01-20T10:18:51.858Z,27.38
2023-01-20T10:21:31.403Z,29.00
2023-01-20T10:24:04.715Z,18.38
2023-01-20T10:26:54.654Z,17.23
2023-01-20T10:29:37.327Z,15.75
2023-01-20T10:32:33.312Z,13.70
2023-01-20T10:35:19.720Z,17.80
2023-01-20T10:37:46.593Z,16.23
2023-01-20T10:40:47.435Z,16.73
2023-01-20T10:43:17.369Z,17.27
2023-01-20T10:48:49.840Z,17.85
2023-01-20T10:51:59.965Z,14.45
2023-01-20T10:54:56.234Z,18.33
2023-01-20T10:57:23.422Z,19.65
2023-01-20T10:59:58.186Z,19.85
2023-01-20T11:02:37.815Z,22.38
2023-01-20T11:05:27.506Z,16.05
2023-01-20T11:07:56.342Z,24.58
2023-01-20T11:10:25.836Z,20.27
2023-01-20T11:12:56.571Z,65.00
2023-01-20T11:15:28.328Z,18.13
2023-01-20T11:18:14.146Z,20.25
2023-01-20T11:20:48.626Z,15.73
2023-01-20T11:23:41.908Z,23.38
2023-01-20T11:26:26.261Z,19.58
2023-01-20T11:28:56.523Z,16.55
2023-01-20T11:31:45.310Z,18.10
2023-01-20T11:34:31.870Z,18.15
2023-01-20T11:37:22.300Z,16.38
2023-01-20T11:39:55.052Z,16.00
2023-01-20T11:42:23.918Z,21.83
2023-01-20T11:45:20.391Z,12.40
2023-01-20T11:48:16.454Z,22.42
2023-01-20T11:50:56.019Z,18.42
2023-01-20T11:53:29.047Z,20.85
2023-01-20T11:55:58.431Z,22.55
2023-01-20T11:58:28.509Z,16.00
2023-01-20T12:01:24.819Z,9.20
2023-01-20T12:04:28.688Z,12.40
2023-01-20T12:07:02.021Z,8.32
2023-01-20T12:09:34.888Z,13.68
2023-01-20T12:12:37.578Z,11.18
2023-01-20T12:15:26.682Z,10.80
2023-01-20T12:18:15.533Z,10.30
2023-01-20T12:20:55.496Z,20.27
2023-01-20T12:23:51.508Z,12.07
2023-01-20T12:26:21.603Z,13.10
2023-01-20T12:29:00.900Z,23.95
2023-01-20T12:31:29.613Z,15.90
2023-01-20T12:34:05.946Z,22.70
2023-01-20T12:36:56.763Z,21.95
2023-01-20T12:40:01.155Z,9.95
2023-01-20T12:43:11.475Z,16.83
2023-01-20T12:46:20.262Z,15.52
2023-01-20T12:49:08.269Z,11.80
2023-01-20T12:52:07.152Z,13.23
2023-01-20T12:54:49.213Z,9.98
2023-01-20T12:57:54.543Z,13.27
2023-01-20T13:00:50.041Z,18.20
2023-01-20T13:03:17.094Z,9.38
2023-01-20T13:06:04.387Z,10.48
2023-01-20T13:09:16.293Z,16.20
2023-01-20T13:11:56.509Z,14.57
2023-01-20T13:14:40.487Z,18.80
2023-01-20T13:17:36.336Z,24.77
2023-01-20T13:20:05.112Z,18.95
2023-01-20T13:22:32.206Z,15.02
2023-01-20T13:25:04.728Z,15.95
2023-01-20T13:27:37.463Z,23.17
2023-01-20T13:30:06.877Z,38.03
2023-01-20T13:32:49.064Z,21.83
2023-01-20T13:35:23.288Z,13.65
2023-01-20T13:37:58.783Z,18.30
2023-01-20T13:40:53.011Z,14.65
2023-01-20T13:43:24.012Z,13.35
2023-01-20T13:46:03.308Z,13.20
2023-01-20T13:48:32.389Z,15.63
2023-01-20T13:51:42.771Z,18.63
2023-01-20T13:54:25.143Z,16.48
2023-01-20T13:56:52.787Z,18.17
2023-01-20T13:59:19.934Z,21.20
2023-01-20T14:01:47.075Z,14.57
2023-01-20T14:04:18.914Z,16.73
2023-01-20T14:06:52.383Z,9.55
2023-01-20T14:09:24.556Z,12.73
2023-01-20T14:11:54.994Z,19.38
2023-01-20T14:14:24.330Z,17.48
2023-01-20T14:16:51.399Z,7.90
2023-01-20T14:19:21.996Z,10.27
2023-01-20T14:21:53.143Z,8.63
2023-01-20T14:24:45.073Z,10.88
2023-01-20T14:27:21.187Z,11.07
2023-01-20T14:29:53.468Z,8.75
2023-01-20T14:32:40.837Z,12.15
2023-01-20T14:35:17.144Z,9.15
2023-01-20T14:37:50.473Z,9.10
2023-01-20T14:40:29.501Z,8.38
2023-01-20T14:43:07.839Z,18.77
2023-01-20T14:45:36.943Z,19.35
2023-01-20T14:48:05.951Z,23.48
2023-01-20T14:50:33.617Z,9.23
2023-01-20T14:53:00.760Z,23.38
2023-01-20T14:55:36.407Z,16.83
2023-01-20T14:58:17.255Z,9.77
2023-01-20T15:00:46.337Z,13.18
2023-01-20T15:03:22.298Z,11.77
2023-01-20T15:05:58.090Z,6.88
2023-01-20T15:08:32.092Z,8.95
2023-01-20T15:11:14.532Z,13.02
2023-01-20T15:14:08.290Z,18.85
2023-01-20T15:16:44.571Z,14.52
2023-01-20T15:19:18.283Z,15.68
2023-01-20T15:21:53.723Z,14.82
2023-01-20T15:24:31.888Z,14.05
2023-01-20T15:27:00.956Z,14.13
2023-01-20T15:29:38.639Z,10.93
2023-01-20T15:32:12.632Z,18.58
2023-01-20T15:34:39.797Z,15.05
2023-01-20T15:37:18.469Z,72.20
2023-01-20T15:39:45.622Z,18.05
2023-01-20T15:42:13.015Z,16.88
2023-01-20T15:44:39.813Z,45.25
2023-01-20T15:47:21.145Z,17.60
2023-01-20T15:49:48.248Z,34.97
2023-01-20T15:52:16.065Z,26.27
2023-01-20T15:54:43.114Z,27.15
2023-01-20T15:57:16.678Z,13.60
2023-01-20T15:59:49.162Z,39.60
2023-01-20T16:02:21.059Z,19.92
2023-01-20T16:04:48.145Z,17.75
2023-01-20T16:07:17.227Z,21.73
2023-01-20T16:09:46.681Z,20.67
2023-01-20T16:12:19.015Z,13.23
2023-01-20T16:14:46.027Z,9.10
2023-01-20T16:17:18.393Z,8.48
2023-01-20T16:19:45.411Z,12.60
2023-01-20T16:22:13.484Z,15.30
2023-01-20T16:24:41.883Z,13.77
2023-01-20T16:27:27.755Z,28.17
2023-01-20T16:29:55.871Z,14.02
2023-01-20T16:32:24.029Z,6.40
2023-01-20T16:34:50.804Z,15.88
2023-01-20T16:37:17.788Z,32.45
2023-01-20T16:39:44.865Z,13.23
2023-01-20T16:42:16.101Z,45.30
2023-01-20T16:44:43.115Z,25.95
2023-01-20T16:47:10.133Z,45.10
2023-01-20T16:49:38.505Z,20.23
2023-01-20T16:52:05.440Z,20.98
2023-01-20T16:54:33.346Z,24.88
2023-01-20T16:57:00.410Z,16.10
2023-01-20T16:59:27.079Z,14.23
2023-01-20T17:01:54.094Z,18.50
2023-01-20T17:04:21.077Z,18.98
2023-01-20T17:06:48.116Z,21.42
2023-01-20T17:09:15.274Z,10.85
2023-01-20T17:11:42.226Z,13.88
2023-01-20T17:14:11.157Z,19.55
2023-01-20T17:16:39.108Z,55.40
2023-01-20T17:19:06.373Z,19.13
2023-01-20T17:21:37.073Z,25.30
2023-01-20T17:24:05.281Z,38.08
2023-01-20T17:26:32.849Z,19.10
2023-01-20T17:29:04.160Z,20.58
2023-01-20T17:31:37.016Z,8.98
2023-01-20T17:34:05.339Z,33.38
2023-01-20T17:36:34.558Z,20.23
2023-01-20T17:39:03.894Z,19.23
2023-01-20T17:41:31.301Z,9.70
2023-01-20T17:44:09.168Z,13.57
2023-01-20T17:46:36.927Z,13.80
2023-01-20T17:49:08.934Z,13.05
2023-01-20T17:51:36.844Z,13.35
2023-01-20T17:54:09.048Z,15.00
2023-01-20T17:56:35.765Z,8.00
2023-01-20T17:59:02.869Z,4.50
2023-01-20T18:01:34.609Z,4.88
2023-01-20T18:04:04.253Z,10.82
2023-01-20T18:06:34.843Z,6.07
2023-01-20T18:09:01.821Z,3.88
2023-01-20T18:11:31.803Z,3.58
2023-01-20T18:14:00.511Z,5.72
2023-01-20T18:16:29.716Z,6.38
2023-01-20T18:19:02.457Z,6.43
2023-01-20T18:21:31.772Z,2.50
2023-01-20T18:23:59.723Z,4.28
2023-01-20T18:26:29.917Z,3.40
2023-01-20T18:29:02.567Z,3.78
2023-01-20T18:31:30.927Z,4.57
2023-01-20T18:34:00.364Z,7.57
2023-01-20T18:36:35.181Z,5.05
2023-01-20T18:39:12.559Z,3.33
2023-01-20T18:41:40.127Z,4.45
2023-01-20T18:44:10.428Z,4.40
2023-01-20T18:46:37.542Z,10.77
2023-01-20T18:49:09.236Z,3.70
2023-01-20T18:51:36.453Z,9.93
2023-01-20T18:54:10.296Z,15.63
2023-01-20T18:56:39.507Z,97.40
2023-01-20T18:59:08.148Z,45.03
2023-01-20T19:01:39.515Z,250.98
2023-01-20T19:04:08.635Z,36.42
2023-01-20T19:06:39.722Z,60.70
2023-01-20T19:09:07.395Z,6.05
2023-01-20T19:11:40.897Z,3.92
2023-01-20T19:14:12.556Z,3.47
2023-01-20T19:16:45.112Z,18.98
2023-01-20T19:19:12.700Z,10.77
2023-01-20T19:21:39.590Z,3.95
2023-01-20T19:24:08.032Z,3.88
2023-01-20T19:26:37.043Z,4.18
2023-01-20T19:29:06.612Z,4.63
2023-01-20T19:31:38.686Z,7.55
2023-01-20T19:34:09.919Z,5.32
2023-01-20T19:36:39.088Z,6.82
2023-01-20T19:39:06.922Z,8.02
2023-01-20T19:41:36.568Z,8.73
2023-01-20T19:44:06.657Z,6.97
2023-01-20T19:46:36.750Z,5.57
2023-01-20T19:49:05.124Z,7.15
2023-01-20T19:51:33.968Z,6.93
2023-01-20T19:54:05.382Z,7.33
2023-01-20T19:56:46.046Z,7.85
2023-01-20T19:59:13.838Z,8.88
2023-01-20T20:01:40.804Z,10.02
2023-01-20T20:04:12.920Z,10.55
2023-01-20T20:06:48.573Z,11.02
2023-01-20T20:09:23.199Z,9.75
2023-01-20T20:11:51.551Z,11.43
2023-01-20T20:14:21.131Z,11.07
2023-01-20T20:16:48.917Z,11.90
2023-01-20T20:19:19.904Z,11.43
2023-01-20T20:21:46.924Z,10.18
2023-01-20T20:24:16.073Z,24.92
2023-01-20T20:26:45.568Z,9.65
2023-01-20T20:29:15.953Z,8.25
2023-01-20T20:31:43.884Z,10.90
2023-01-20T20:34:15.428Z,11.18
2023-01-20T20:36:42.453Z,12.52
2023-01-20T20:39:14.394Z,13.60
2023-01-20T20:41:41.648Z,14.60
2023-01-20T20:44:13.064Z,12.27
2023-01-20T20:46:43.621Z,15.63
2023-01-20T20:49:15.159Z,16.30
2023-01-20T20:51:43.065Z,21.77
2023-01-20T20:54:11.848Z,16.23
2023-01-20T20:56:40.776Z,18.90
2023-01-20T20:59:09.244Z,21.40
2023-01-20T21:01:36.184Z,24.25
2023-01-20T21:04:04.101Z,23.42
2023-01-20T21:06:32.442Z,40.58
2023-01-20T21:08:59.868Z,38.78
2023-01-20T21:11:27.221Z,45.97
2023-01-20T21:13:55.249Z,41.72
2023-01-20T21:16:25.411Z,52.20
2023-01-20T21:18:53.858Z,52.15
2023-01-20T21:21:22.833Z,45.10
2023-01-20T21:23:52.647Z,45.40
2023-01-20T21:28:51.003Z,42.15
2023-01-20T21:31:27.730Z,28.88
2023-01-20T21:33:58.360Z,38.40
2023-01-20T21:36:26.733Z,34.88
2023-01-20T21:38:54.862Z,38.80
2023-01-20T21:41:21.921Z,35.92
2023-01-20T21:44:07.718Z,42.03
2023-01-20T21:46:40.081Z,33.40
2023-01-20T21:49:28.069Z,34.38
2023-01-20T21:52:13.911Z,23.33
2023-01-20T21:54:44.730Z,28.55
2023-01-20T21:57:13.070Z,26.90
2023-01-20T21:59:41.414Z,28.23
2023-01-20T22:02:12.188Z,23.20
2023-01-20T22:04:41.520Z,28.05
2023-01-20T22:07:10.293Z,20.92
2023-01-20T22:09:36.998Z,21.15
2023-01-20T22:12:04.276Z,16.50
2023-01-20T22:14:32.619Z,18.45
2023-01-20T22:16:59.664Z,20.83
2023-01-20T22:19:29.693Z,14.57
2023-01-20T22:21:56.856Z,16.88
2023-01-20T22:24:24.654Z,16.23
2023-01-20T22:26:52.122Z,22.50
2023-01-20T22:29:19.267Z,16.02
2023-01-20T22:31:47.106Z,18.92
2023-01-20T22:34:14.074Z,19.02
2023-01-20T22:36:41.429Z,21.40
2023-01-20T22:39:15.032Z,23.40
2023-01-20T22:41:42.181Z,25.42
2023-01-20T22:44:11.269Z,22.20
2023-01-20T22:46:38.374Z,23.88
2023-01-20T22:49:05.367Z,24.08
2023-01-20T22:51:32.511Z,26.92
2023-01-20T22:54:01.030Z,20.85
2023-01-20T22:56:30.332Z,23.88
2023-01-20T22:58:58.715Z,27.50
2023-01-20T23:01:32.624Z,27.13
2023-01-20T23:04:02.223Z,30.73
2023-01-20T23:06:33.117Z,28.98
2023-01-20T23:09:06.286Z,25.40
2023-01-20T23:11:34.002Z,27.63
2023-01-20T23:14:02.833Z,28.60
2023-01-20T23:16:30.703Z,27.63
2023-01-20T23:18:57.860Z,26.75
2023-01-20T23:21:26.920Z,26.38
2023-01-20T23:23:56.825Z,20.77
2023-01-20T23:26:29.219Z,19.52
2023-01-20T23:28:57.341Z,23.50
2023-01-20T23:31:25.893Z,26.17
2023-01-20T23:33:54.080Z,29.50
2023-01-20T23:36:24.507Z,27.88
2023-01-20T23:38:55.797Z,29.08
2023-01-20T23:41:23.301Z,27.73
2023-01-20T23:43:54.557Z,33.80
2023-01-20T23:46:21.572Z,28.55
2023-01-20T23:48:48.544Z,32.17
2023-01-20T23:51:16.468Z,26.95
2023-01-20T23:53:44.348Z,31.35
2023-01-20T23:56:16.679Z,30.52
2023-01-20T23:58:44.467Z,27.20
